Time;durP1;ratioP1;P1;durP2;ratioP2;P2;SDS_P1;SDS_P2;PMS_P1;PMS_P2;Temp;Humidity;BMP_temperature;BMP_pressure;BME280_temperature;BME280_humidity;BME280_pressure;Samples;Min_cycle;Max_cycle;Signal;HPM_P1;HPM_P2
2022/03/29 00:01:55;;;;;;;25.93;12.17;;;6.60;94.10;;;;;;4994209;28;20356;-77
2022/03/29 00:04:22;;;;;;;19.90;11.80;;;6.60;94.30;;;;;;4994117;28;20129;-77
2022/03/29 00:06:48;;;;;;;22.10;12.10;;;6.60;94.50;;;;;;4993123;28;20379;-77
2022/03/29 00:09:14;;;;;;;19.30;11.40;;;6.60;94.60;;;;;;4994601;28;20442;-77
2022/03/29 00:11:39;;;;;;;20.80;12.77;;;6.60;94.90;;;;;;4994002;28;20064;-77
2022/03/29 00:14:06;;;;;;;18.90;11.40;;;6.60;95.40;;;;;;4994264;28;20026;-77
2022/03/29 00:16:32;;;;;;;17.20;10.97;;;6.50;95.40;;;;;;4993960;28;20042;-77
2022/03/29 00:18:58;;;;;;;23.83;12.47;;;6.50;95.50;;;;;;4992775;28;20117;-77
2022/03/29 00:21:24;;;;;;;21.83;12.13;;;6.50;95.70;;;;;;4992771;28;20061;-77
2022/03/29 00:23:50;;;;;;;19.27;11.20;;;6.50;95.80;;;;;;4994081;28;20058;-77
2022/03/29 00:26:16;;;;;;;21.17;11.97;;;6.40;96.00;;;;;;4993696;28;20437;-77
2022/03/29 00:28:42;;;;;;;20.33;12.00;;;6.50;96.20;;;;;;4993922;28;20081;-77
2022/03/29 00:31:08;;;;;;;20.73;12.07;;;6.40;96.40;;;;;;4993965;28;20038;-77
2022/03/29 00:33:34;;;;;;;20.37;11.93;;;6.40;96.90;;;;;;4992269;28;20030;-77
2022/03/29 00:35:59;;;;;;;20.70;12.73;;;6.40;97.00;;;;;;4993459;28;20033;-76
2022/03/29 00:38:25;;;;;;;21.67;11.47;;;6.30;97.10;;;;;;4993640;28;20037;-77
2022/03/29 00:40:51;;;;;;;20.40;12.00;;;6.30;97.60;;;;;;4993644;28;20435;-77
2022/03/29 00:43:17;;;;;;;24.77;12.17;;;6.30;97.90;;;;;;4993754;28;20030;-77
2022/03/29 00:45:43;;;;;;;23.07;11.80;;;6.30;98.20;;;;;;4993392;28;20042;-77
2022/03/29 00:48:09;;;;;;;22.60;12.27;;;6.30;98.60;;;;;;4993517;28;20053;-77
2022/03/29 00:50:38;;;;;;;21.87;12.90;;;6.20;98.80;;;;;;4992133;28;20450;-77
2022/03/29 00:53:05;;;;;;;21.87;11.77;;;6.20;99.10;;;;;;4992222;28;20456;-77
2022/03/29 00:55:31;;;;;;;21.23;12.50;;;6.20;99.40;;;;;;4992031;28;20030;-77
2022/03/29 00:57:58;;;;;;;21.03;12.17;;;6.20;99.50;;;;;;4997925;28;20030;-77
2022/03/29 01:00:24;;;;;;;21.60;12.30;;;6.20;99.80;;;;;;5012827;28;20018;-77
2022/03/29 01:02:49;;;;;;;20.47;11.83;;;6.20;99.90;;;;;;5012807;28;20040;-76
2022/03/29 01:05:15;;;;;;;21.20;12.23;;;6.20;99.90;;;;;;4995238;28;20092;-77
2022/03/29 01:07:41;;;;;;;25.37;12.97;;;6.20;99.90;;;;;;4994968;28;20053;-77
2022/03/29 01:10:08;;;;;;;23.07;13.27;;;6.20;99.90;;;;;;5012908;28;20030;-77
2022/03/29 01:12:33;;;;;;;20.30;11.87;;;6.20;99.90;;;;;;5012820;28;20496;-77
2022/03/29 01:15:03;;;;;;;22.17;12.40;;;6.20;99.90;;;;;;5012495;28;20033;-77
2022/03/29 01:17:39;;;;;;;21.27;12.63;;;6.20;99.90;;;;;;5011566;28;20026;-77
2022/03/29 01:20:13;;;;;;;19.43;11.47;;;6.20;99.90;;;;;;5012617;28;20175;-77
2022/03/29 01:22:47;;;;;;;19.27;11.80;;;6.20;99.90;;;;;;5012589;28;20037;-77
2022/03/29 01:25:19;;;;;;;19.90;12.23;;;6.10;99.90;;;;;;5011325;28;20420;-76
2022/03/29 01:27:47;;;;;;;21.07;12.23;;;6.10;99.90;;;;;;5012617;28;20148;-77
2022/03/29 01:30:14;;;;;;;20.43;12.40;;;6.10;99.90;;;;;;5012843;28;20030;-77
2022/03/29 01:32:43;;;;;;;20.63;12.60;;;6.00;99.90;;;;;;5011373;28;20033;-77
2022/03/29 01:35:09;;;;;;;19.87;12.07;;;6.00;99.90;;;;;;4994834;28;20041;-77
2022/03/29 01:37:35;;;;;;;22.03;12.63;;;5.90;99.90;;;;;;5012474;28;20376;-77
2022/03/29 01:40:13;;;;;;;22.03;12.73;;;6.00;99.90;;;;;;4994762;28;20022;-77
2022/03/29 01:42:45;;;;;;;19.87;12.77;;;5.90;99.90;;;;;;5012395;28;20026;-77
2022/03/29 01:45:11;;;;;;;22.63;12.50;;;5.90;99.90;;;;;;5011881;28;20034;-77
2022/03/29 01:47:37;;;;;;;21.67;12.10;;;5.90;99.90;;;;;;5012101;28;20034;-77
2022/03/29 01:50:02;;;;;;;22.00;13.03;;;5.80;99.90;;;;;;5011921;28;20041;-76
2022/03/29 01:52:28;;;;;;;23.23;12.83;;;5.80;99.90;;;;;;5012106;28;20522;-77
2022/03/29 01:54:53;;;;;;;22.63;12.97;;;5.80;99.90;;;;;;4994514;28;20034;-77
2022/03/29 01:57:26;;;;;;;27.03;13.13;;;5.80;99.90;;;;;;5009332;28;20049;-77
2022/03/29 02:02:36;;;;;;;23.13;13.40;;;5.80;99.90;;;;;;5014068;28;20037;-77
2022/03/29 02:05:02;;;;;;;23.37;12.60;;;5.80;99.90;;;;;;5015958;28;20026;-77
2022/03/29 02:07:27;;;;;;;20.73;12.80;;;5.70;99.90;;;;;;4998326;28;20080;-77
2022/03/29 02:09:53;;;;;;;23.37;12.90;;;5.70;99.90;;;;;;4998084;28;20041;-77
2022/03/29 02:12:18;;;;;;;20.07;11.73;;;5.70;99.90;;;;;;4997964;28;20133;-77
2022/03/29 02:14:44;;;;;;;21.57;13.07;;;5.70;99.90;;;;;;4998291;28;20037;-78
2022/03/29 02:17:09;;;;;;;21.53;13.07;;;5.60;99.90;;;;;;4998049;28;20045;-77
2022/03/29 02:19:35;;;;;;;21.80;12.17;;;5.60;99.90;;;;;;5015771;28;20030;-77
2022/03/29 02:22:00;;;;;;;21.23;13.03;;;5.60;99.90;;;;;;5015673;28;20038;-77
2022/03/29 02:24:26;;;;;;;25.03;13.63;;;5.60;99.90;;;;;;4997848;28;20121;-77
2022/03/29 02:26:52;;;;;;;18.50;11.70;;;5.60;99.90;;;;;;5015785;28;20037;-78
2022/03/29 02:29:17;;;;;;;21.80;13.20;;;5.60;99.90;;;;;;5015251;28;20438;-77
2022/03/29 02:31:43;;;;;;;23.50;13.20;;;5.60;99.90;;;;;;5015768;28;20026;-77
2022/03/29 02:34:08;;;;;;;22.33;12.67;;;5.60;99.90;;;;;;5015526;28;20049;-77
2022/03/29 02:36:34;;;;;;;21.63;11.90;;;5.60;99.90;;;;;;5015338;28;20092;-77
2022/03/29 02:38:59;;;;;;;23.73;13.17;;;5.60;99.90;;;;;;5015125;28;20033;-77
2022/03/29 02:41:25;;;;;;;25.87;13.47;;;5.60;99.90;;;;;;5015011;28;20026;-77
2022/03/29 02:43:50;;;;;;;24.07;12.63;;;5.60;99.90;;;;;;5014066;28;20518;-77
2022/03/29 02:46:16;;;;;;;20.13;13.13;;;5.60;99.90;;;;;;4977796;28;20121;-77
2022/03/29 02:48:41;;;;;;;17.57;11.77;;;5.70;99.90;;;;;;4995522;28;20123;-77
2022/03/29 02:51:07;;;;;;;24.30;12.63;;;5.60;99.90;;;;;;4995621;28;20464;-77
2022/03/29 02:53:33;;;;;;;23.10;12.70;;;5.60;99.90;;;;;;4994461;28;20041;-77
2022/03/29 02:55:58;;;;;;;19.67;11.93;;;5.60;99.90;;;;;;4995360;28;20027;-77
2022/03/29 02:58:26;;;;;;;23.33;13.30;;;5.60;99.90;;;;;;5008091;28;20034;-77
2022/03/29 03:00:52;;;;;;;21.40;12.37;;;5.70;99.90;;;;;;5014884;28;20079;-77
2022/03/29 03:03:17;;;;;;;25.47;13.03;;;5.70;99.90;;;;;;4997080;28;20050;-77
2022/03/29 03:05:43;;;;;;;22.23;11.83;;;5.70;99.90;;;;;;5014812;28;20037;-77
2022/03/29 03:08:08;;;;;;;22.60;12.70;;;5.70;99.90;;;;;;5013986;28;20502;-77
2022/03/29 03:10:34;;;;;;;19.00;11.67;;;5.80;99.90;;;;;;5014694;28;20029;-77
2022/03/29 03:13:00;;;;;;;20.70;12.53;;;5.80;99.90;;;;;;5013761;28;20030;-77
2022/03/29 03:15:25;;;;;;;21.13;12.23;;;5.80;99.90;;;;;;5014291;28;20038;-77
2022/03/29 03:17:52;;;;;;;25.23;12.47;;;5.80;99.90;;;;;;5014541;28;20056;-77
2022/03/29 03:20:18;;;;;;;19.57;12.00;;;5.80;99.90;;;;;;5014391;28;20077;-77
2022/03/29 03:22:44;;;;;;;23.20;11.83;;;5.80;99.90;;;;;;5014425;28;20025;-77
2022/03/29 03:25:11;;;;;;;19.97;12.57;;;5.80;99.90;;;;;;5013127;28;20420;-77
2022/03/29 03:27:38;;;;;;;24.90;11.57;;;5.80;99.90;;;;;;5014391;28;20098;-78
2022/03/29 03:30:05;;;;;;;19.87;11.60;;;5.70;99.90;;;;;;5014197;28;20037;-77
2022/03/29 03:32:31;;;;;;;22.00;12.10;;;5.70;99.90;;;;;;5014257;28;20038;-77
2022/03/29 03:34:57;;;;;;;19.33;11.80;;;5.70;99.90;;;;;;5014086;28;20040;-77
2022/03/29 03:37:23;;;;;;;19.17;11.53;;;5.70;99.90;;;;;;5014201;28;20137;-77
2022/03/29 03:39:49;;;;;;;26.80;13.03;;;5.70;99.90;;;;;;5014095;28;20053;-77
2022/03/29 03:42:15;;;;;;;22.83;13.13;;;5.60;99.90;;;;;;5014573;28;20077;-77
2022/03/29 03:44:40;;;;;;;22.13;12.47;;;5.60;99.90;;;;;;5012709;28;20100;-78
2022/03/29 03:47:10;;;;;;;23.10;12.83;;;5.60;99.90;;;;;;5014159;28;20026;-77
2022/03/29 03:49:36;;;;;;;19.80;11.83;;;5.60;99.90;;;;;;5013917;28;20026;-77
2022/03/29 03:52:03;;;;;;;20.63;12.57;;;5.50;99.90;;;;;;5012530;28;20069;-78
2022/03/29 03:54:28;;;;;;;23.33;12.43;;;5.50;99.90;;;;;;5012281;28;20029;-77
2022/03/29 03:56:54;;;;;;;24.70;12.43;;;5.50;99.90;;;;;;5014021;28;20089;-77
2022/03/29 03:59:19;;;;;;;23.50;12.33;;;5.40;99.90;;;;;;5013884;28;20486;-77
2022/03/29 04:01:45;;;;;;;26.37;13.20;;;5.40;99.90;;;;;;5013815;28;20036;-77
2022/03/29 04:04:11;;;;;;;21.03;12.87;;;5.40;99.90;;;;;;5013718;28;20101;-77
2022/03/29 04:06:36;;;;;;;24.10;11.63;;;5.30;99.90;;;;;;5013552;28;20041;-77
2022/03/29 04:09:02;;;;;;;21.40;12.30;;;5.40;99.90;;;;;;5013704;28;20038;-76
2022/03/29 04:11:27;;;;;;;21.90;12.00;;;5.40;99.90;;;;;;4995004;28;20500;-76
2022/03/29 04:13:54;;;;;;;21.10;12.27;;;5.40;99.90;;;;;;5013022;28;20062;-76
2022/03/29 04:16:20;;;;;;;20.17;12.80;;;5.40;99.90;;;;;;5012472;28;20041;-79
2022/03/29 04:18:46;;;;;;;19.00;11.73;;;5.40;99.90;;;;;;5007786;28;20030;-79
2022/03/29 04:21:11;;;;;;;20.60;11.90;;;5.40;99.90;;;;;;5008280;28;20029;-79
2022/03/29 04:23:37;;;;;;;22.53;13.13;;;5.40;99.90;;;;;;5010774;28;20025;-79
2022/03/29 04:26:03;;;;;;;19.80;12.33;;;5.50;99.90;;;;;;4991997;28;20486;-79
2022/03/29 04:28:29;;;;;;;17.83;11.70;;;5.50;99.90;;;;;;5009749;28;20534;-79
2022/03/29 04:30:55;;;;;;;20.07;12.27;;;5.40;99.90;;;;;;5009643;28;20026;-79
2022/03/29 04:33:24;;;;;;;24.27;12.30;;;5.50;99.90;;;;;;5010290;28;20416;-79
2022/03/29 04:35:50;;;;;;;20.53;12.17;;;5.50;99.90;;;;;;5009961;28;20033;-79
2022/03/29 04:38:15;;;;;;;20.70;12.43;;;5.50;99.90;;;;;;4992184;28;20018;-79
2022/03/29 04:40:41;;;;;;;22.03;11.83;;;5.50;99.90;;;;;;5009885;28;20029;-79
2022/03/29 04:43:06;;;;;;;19.17;12.47;;;5.50;99.90;;;;;;5009983;28;20109;-79
2022/03/29 04:45:32;;;;;;;24.23;11.97;;;5.50;99.90;;;;;;5009798;28;20030;-79
2022/03/29 04:47:58;;;;;;;21.27;12.30;;;5.60;99.90;;;;;;5010107;28;20440;-79
2022/03/29 04:50:24;;;;;;;21.53;12.10;;;5.60;99.90;;;;;;5009797;28;20049;-79
2022/03/29 04:52:49;;;;;;;20.33;11.00;;;5.60;99.90;;;;;;5009958;28;20055;-79
2022/03/29 04:55:16;;;;;;;20.10;11.40;;;5.60;99.90;;;;;;5008244;28;20026;-79
2022/03/29 04:57:43;;;;;;;25.77;11.83;;;5.70;99.90;;;;;;4997768;28;20077;-79
2022/03/29 05:00:12;;;;;;;20.80;12.00;;;5.70;99.90;;;;;;4995760;28;20022;-75
2022/03/29 05:02:41;;;;;;;20.80;11.60;;;5.70;99.90;;;;;;5013662;28;20052;-74
2022/03/29 05:05:08;;;;;;;22.23;11.70;;;5.80;99.90;;;;;;5008092;28;20426;-74
2022/03/29 05:07:33;;;;;;;24.10;10.83;;;5.80;99.90;;;;;;5013893;28;20041;-75
2022/03/29 05:09:59;;;;;;;20.33;11.30;;;5.80;99.90;;;;;;5013515;28;20643;-74
2022/03/29 05:12:25;;;;;;;23.30;11.90;;;5.80;99.90;;;;;;5013407;28;20037;-74
2022/03/29 05:14:50;;;;;;;20.37;11.43;;;5.90;99.90;;;;;;5013588;28;20053;-75
2022/03/29 05:17:16;;;;;;;17.80;10.30;;;5.90;99.90;;;;;;5013466;28;20446;-74
2022/03/29 05:19:41;;;;;;;22.43;11.77;;;5.90;99.90;;;;;;5003968;28;20053;-75
2022/03/29 05:22:07;;;;;;;23.00;11.70;;;6.00;99.90;;;;;;4993749;28;20081;-75
2022/03/29 05:24:32;;;;;;;20.60;11.73;;;6.00;99.90;;;;;;4993516;28;20030;-75
2022/03/29 05:26:58;;;;;;;23.87;12.33;;;6.00;99.90;;;;;;5013436;28;20033;-75
2022/03/29 05:29:25;;;;;;;20.10;11.17;;;6.10;99.90;;;;;;5032681;28;20029;-75
2022/03/29 05:31:51;;;;;;;24.77;12.40;;;6.10;99.90;;;;;;4997649;28;20403;-75
2022/03/29 05:34:17;;;;;;;24.07;11.23;;;6.10;99.90;;;;;;5013688;28;20034;-75
2022/03/29 05:36:45;;;;;;;22.80;10.97;;;6.10;99.90;;;;;;5014288;28;20033;-75
2022/03/29 05:39:13;;;;;;;22.37;11.17;;;6.10;99.90;;;;;;4999693;28;20022;-73
2022/03/29 05:41:39;;;;;;;17.70;11.07;;;6.20;99.90;;;;;;5017419;28;20028;-73
2022/03/29 05:44:05;;;;;;;18.47;11.10;;;6.20;99.90;;;;;;5017377;28;20146;-73
2022/03/29 05:49:15;;;;;;;19.70;11.57;;;6.30;99.90;;;;;;4998077;28;20092;-73
2022/03/29 05:51:41;;;;;;;21.43;11.83;;;6.40;99.90;;;;;;4997644;28;20023;-73
2022/03/29 05:54:06;;;;;;;19.20;10.73;;;6.40;99.90;;;;;;4996408;28;20383;-74
2022/03/29 05:56:32;;;;;;;26.27;11.13;;;6.40;99.90;;;;;;4996147;28;20028;-74
2022/03/29 05:58:58;;;;;;;21.30;11.20;;;6.40;99.90;;;;;;4996212;28;20097;-74
2022/03/29 06:01:23;;;;;;;26.33;12.17;;;6.40;99.90;;;;;;4995648;28;20026;-74
2022/03/29 06:03:49;;;;;;;25.07;11.47;;;6.40;99.90;;;;;;4997402;28;20048;-75
2022/03/29 06:06:15;;;;;;;37.30;11.83;;;6.40;99.90;;;;;;5007414;28;20037;-75
2022/03/29 06:08:41;;;;;;;49.83;12.47;;;6.40;99.90;;;;;;4999116;28;20112;-74
2022/03/29 06:11:07;;;;;;;33.60;12.63;;;6.40;99.90;;;;;;5016566;28;20026;-74
2022/03/29 06:13:33;;;;;;;44.87;12.70;;;6.40;99.90;;;;;;5016368;28;20354;-75
2022/03/29 06:15:59;;;;;;;26.37;11.63;;;6.50;99.90;;;;;;5015485;28;20080;-74
2022/03/29 06:18:25;;;;;;;21.93;11.50;;;6.60;99.90;;;;;;5016592;28;20022;-74
2022/03/29 06:20:51;;;;;;;26.07;11.87;;;6.70;99.90;;;;;;5016881;28;20022;-75
2022/03/29 06:23:17;;;;;;;29.57;12.80;;;6.70;99.90;;;;;;5016546;28;20438;-75
2022/03/29 06:25:43;;;;;;;27.20;11.07;;;6.90;99.90;;;;;;5016326;28;20034;-74
2022/03/29 06:28:10;;;;;;;32.70;10.93;;;7.00;99.90;;;;;;5016561;28;20033;-74
2022/03/29 06:30:39;;;;;;;31.67;12.00;;;7.10;99.90;;;;;;5014806;28;20034;-77
2022/03/29 06:33:05;;;;;;;24.27;12.07;;;7.20;99.90;;;;;;4996506;28;20026;-78
2022/03/29 06:35:34;;;;;;;41.73;12.00;;;7.40;99.90;;;;;;5001491;28;20116;-75
2022/03/29 06:38:00;;;;;;;26.27;11.17;;;7.60;99.90;;;;;;5016129;28;20100;-75
2022/03/29 06:40:27;;;;;;;34.53;12.43;;;7.70;99.90;;;;;;5015967;28;20054;-75
2022/03/29 06:42:55;;;;;;;46.50;12.20;;;7.80;99.90;;;;;;5016297;28;20026;-75
2022/03/29 06:45:21;;;;;;;37.50;12.37;;;7.90;99.90;;;;;;5002370;28;20080;-77
2022/03/29 06:47:47;;;;;;;24.57;11.43;;;7.90;99.90;;;;;;5009526;28;20026;-80
2022/03/29 06:50:13;;;;;;;22.27;10.70;;;8.10;99.90;;;;;;4998788;28;20089;-73
2022/03/29 06:52:41;;;;;;;21.20;9.87;;;8.20;99.90;;;;;;5012821;28;20029;-78
2022/03/29 06:55:10;;;;;;;28.60;10.60;;;8.30;99.90;;;;;;4992713;28;20081;-80
2022/03/29 06:57:36;;;;;;;21.07;11.13;;;8.30;99.90;;;;;;4996974;28;20029;-74
2022/03/29 07:00:04;;;;;;;25.13;10.67;;;8.40;99.90;;;;;;4998471;28;20489;-74
2022/03/29 07:02:29;;;;;;;23.10;10.77;;;8.60;99.90;;;;;;4998710;28;20022;-71
2022/03/29 07:04:55;;;;;;;24.47;10.07;;;8.70;99.90;;;;;;4998348;28;20046;-72
2022/03/29 07:07:21;;;;;;;27.83;10.50;;;8.80;99.90;;;;;;4998353;28;20025;-72
2022/03/29 07:12:30;;;;;;;23.03;11.43;;;9.10;99.90;;;;;;5016161;28;20490;-72
2022/03/29 07:14:58;;;;;;;18.63;10.00;;;9.20;99.90;;;;;;4998115;28;20026;-72
2022/03/29 07:17:24;;;;;;;19.67;10.50;;;9.40;99.90;;;;;;5015785;28;20044;-72
2022/03/29 07:19:49;;;;;;;23.23;11.03;;;9.60;99.90;;;;;;5015696;28;20026;-72
2022/03/29 07:22:16;;;;;;;22.77;10.30;;;9.80;99.90;;;;;;5015685;28;20025;-72
2022/03/29 07:24:42;;;;;;;35.07;11.40;;;10.00;99.90;;;;;;5016149;28;20028;-72
2022/03/29 07:27:08;;;;;;;30.53;11.63;;;10.20;99.90;;;;;;5015653;28;20022;-73
2022/03/29 07:29:34;;;;;;;27.83;11.50;;;10.40;99.90;;;;;;5015326;28;20370;-74
2022/03/29 07:31:59;;;;;;;21.00;10.53;;;10.60;99.90;;;;;;5015269;28;20106;-76
2022/03/29 07:34:25;;;;;;;35.77;12.17;;;10.80;99.90;;;;;;5014959;28;20097;-75
2022/03/29 07:36:51;;;;;;;36.13;12.53;;;10.90;99.90;;;;;;5014596;28;20030;-79
2022/03/29 07:39:17;;;;;;;26.53;11.57;;;11.00;99.90;;;;;;5013479;28;20494;-76
2022/03/29 07:41:43;;;;;;;25.50;11.80;;;11.20;99.90;;;;;;5015043;28;20022;-76
2022/03/29 07:44:08;;;;;;;26.50;12.20;;;11.30;99.90;;;;;;5008898;28;20026;-76
2022/03/29 07:46:34;;;;;;;26.67;12.40;;;11.50;99.90;;;;;;5014982;28;20029;-75
2022/03/29 07:48:59;;;;;;;19.50;11.90;;;11.70;99.90;;;;;;5014021;28;20026;-76
2022/03/29 07:51:25;;;;;;;32.13;12.83;;;11.80;99.90;;;;;;5014051;28;20056;-75
2022/03/29 07:53:51;;;;;;;25.13;11.80;;;11.90;99.90;;;;;;4993282;28;20030;-80
2022/03/29 07:56:16;;;;;;;23.07;12.57;;;12.10;99.90;;;;;;5011047;28;20455;-79
2022/03/29 07:58:42;;;;;;;27.08;12.60;;;12.20;99.90;;;;;;5001045;28;20079;-79
2022/03/29 08:01:07;;;;;;;22.40;11.70;;;12.40;99.90;;;;;;5009268;28;20018;-80
2022/03/29 08:03:33;;;;;;;20.52;12.05;;;12.50;99.40;;;;;;5013078;28;20045;-80
2022/03/29 08:06:01;;;;;;;20.15;11.77;;;12.60;99.40;;;;;;5008866;28;20026;-78
2022/03/29 08:08:27;;;;;;;24.92;12.60;;;12.60;99.90;;;;;;5008598;28;20025;-79
2022/03/29 08:10:52;;;;;;;22.00;12.50;;;12.70;99.20;;;;;;4990721;28;20139;-80
2022/03/29 08:13:18;;;;;;;20.83;11.85;;;12.70;98.90;;;;;;5009284;28;20764;-79
2022/03/29 08:15:46;;;;;;;24.13;11.57;;;12.90;98.30;;;;;;4997144;28;20030;-78
2022/03/29 08:18:11;;;;;;;21.83;12.13;;;13.00;97.90;;;;;;5008543;28;20053;-78
2022/03/29 08:20:38;;;;;;;28.40;12.43;;;13.10;97.00;;;;;;4993086;28;20057;-78
2022/03/29 08:23:06;;;;;;;28.27;12.05;;;13.20;97.20;;;;;;5009073;28;20036;-77
2022/03/29 08:25:34;;;;;;;23.80;12.13;;;13.40;95.60;;;;;;5008627;28;20030;-79
2022/03/29 08:28:00;;;;;;;28.65;12.82;;;13.50;96.20;;;;;;5009096;28;20038;-79
2022/03/29 08:30:27;;;;;;;29.23;12.23;;;13.60;96.40;;;;;;5009647;28;20068;-69
2022/03/29 08:32:54;;;;;;;23.67;12.45;;;13.60;95.40;;;;;;4998274;28;20029;-70
2022/03/29 08:35:19;;;;;;;19.77;11.98;;;13.80;94.40;;;;;;5008723;28;20147;-69
2022/03/29 08:37:47;;;;;;;24.55;12.25;;;13.90;94.80;;;;;;5009244;28;20064;-78
2022/03/29 08:40:15;;;;;;;29.42;13.13;;;14.10;93.70;;;;;;5011637;28;20109;-78
2022/03/29 08:42:43;;;;;;;29.02;13.13;;;14.20;93.90;;;;;;5001467;28;20026;-78
2022/03/29 08:45:11;;;;;;;23.30;12.05;;;14.30;93.20;;;;;;4993945;28;20040;-78
2022/03/29 08:47:37;;;;;;;23.88;12.07;;;14.40;93.20;;;;;;5010889;28;20034;-78
2022/03/29 08:50:05;;;;;;;18.02;11.77;;;14.60;91.90;;;;;;5010483;28;20033;-79
2022/03/29 08:52:31;;;;;;;21.63;11.43;;;14.80;91.50;;;;;;4995712;28;20506;-69
2022/03/29 08:54:57;;;;;;;27.50;12.82;;;15.00;90.80;;;;;;5008016;28;20060;-69
2022/03/29 08:57:23;;;;;;;23.08;11.80;;;15.10;90.20;;;;;;5005942;28;20026;-69
2022/03/29 08:59:49;;;;;;;22.48;12.07;;;15.40;90.30;;;;;;4999837;28;20056;-72
2022/03/29 09:02:16;;;;;;;23.58;12.10;;;15.70;85.40;;;;;;4989938;28;20112;-79
2022/03/29 09:04:43;;;;;;;19.92;12.15;;;15.80;84.80;;;;;;5007383;28;20045;-79
2022/03/29 09:07:09;;;;;;;20.83;12.45;;;15.90;84.50;;;;;;5007547;28;20076;-79
2022/03/29 09:09:44;;;;;;;27.75;12.43;;;15.80;82.70;;;;;;5004663;28;20065;-79
2022/03/29 09:12:10;;;;;;;21.23;11.80;;;15.90;83.60;;;;;;4993502;28;20077;-79
2022/03/29 09:14:54;;;;;;;26.15;12.85;;;15.90;81.50;;;;;;4989311;28;20030;-74
2022/03/29 09:17:32;;;;;;;21.40;11.73;;;15.90;82.40;;;;;;5005785;28;20028;-67
2022/03/29 09:20:10;;;;;;;23.98;11.80;;;15.90;81.70;;;;;;5008064;28;20037;-68
2022/03/29 09:22:42;;;;;;;27.08;13.18;;;16.10;81.20;;;;;;5010605;28;20022;-67
2022/03/29 09:25:14;;;;;;;19.05;11.30;;;16.10;82.30;;;;;;5011311;28;20026;-68
2022/03/29 09:27:54;;;;;;;21.90;12.73;;;16.10;81.20;;;;;;5011183;28;20080;-66
2022/03/29 09:30:21;;;;;;;22.45;11.05;;;16.10;82.20;;;;;;5012617;28;20046;-67
2022/03/29 09:33:00;;;;;;;18.38;11.98;;;16.20;81.50;;;;;;5012860;28;20056;-67
2022/03/29 09:35:26;;;;;;;18.30;11.80;;;16.30;81.60;;;;;;5012773;28;20045;-66
2022/03/29 09:37:53;;;;;;;25.20;12.77;;;16.50;82.60;;;;;;5013128;28;20046;-67
2022/03/29 09:40:19;;;;;;;19.27;12.07;;;16.60;81.50;;;;;;5013202;28;20029;-67
2022/03/29 09:43:06;;;;;;;23.88;12.15;;;16.80;81.30;;;;;;5012726;28;20084;-66
2022/03/29 09:45:49;;;;;;;18.65;12.07;;;16.90;80.80;;;;;;5012264;28;20540;-66
2022/03/29 09:48:22;;;;;;;20.13;12.23;;;16.90;78.80;;;;;;4987638;28;20032;-80
2022/03/29 09:50:49;;;;;;;22.75;12.32;;;17.00;78.50;;;;;;4993552;28;20030;-81
2022/03/29 09:53:44;;;;;;;28.13;12.75;;;17.10;77.00;;;;;;4977002;28;20023;-81
2022/03/29 09:56:12;;;;;;;19.15;12.45;;;17.30;75.80;;;;;;4988490;28;20376;-80
2022/03/29 09:58:39;;;;;;;21.67;11.88;;;17.40;74.90;;;;;;5000431;28;20033;-81
2022/03/29 10:01:20;;;;;;;24.85;12.75;;;17.40;75.60;;;;;;4990946;28;20080;-82
2022/03/29 10:03:45;;;;;;;21.40;12.95;;;17.50;72.60;;;;;;5011998;28;20034;-80
2022/03/29 10:06:12;;;;;;;21.85;13.25;;;17.50;75.20;;;;;;5012478;28;20479;-80
2022/03/29 10:11:26;;;;;;;21.73;11.73;;;17.60;75.10;;;;;;5011966;28;20037;-81
2022/03/29 10:13:52;;;;;;;21.33;11.65;;;17.80;72.20;;;;;;5013876;28;20077;-81
2022/03/29 10:16:18;;;;;;;26.13;11.73;;;18.00;70.80;;;;;;4997343;28;20419;-81
2022/03/29 10:18:45;;;;;;;20.63;11.45;;;18.10;69.20;;;;;;5013154;28;20029;-81
2022/03/29 10:21:15;;;;;;;21.42;11.60;;;18.30;69.00;;;;;;4996319;28;20034;-81
2022/03/29 10:23:44;;;;;;;24.25;11.38;;;18.30;67.70;;;;;;5015332;28;20022;-73
2022/03/29 10:26:10;;;;;;;20.05;11.00;;;18.30;66.70;;;;;;5016941;28;20447;-74
2022/03/29 10:28:36;;;;;;;28.55;12.35;;;18.00;67.10;;;;;;5015325;28;20437;-73
2022/03/29 10:31:01;;;;;;;19.30;11.10;;;17.90;68.20;;;;;;5016888;28;20042;-73
2022/03/29 10:33:33;;;;;;;30.00;12.88;;;17.80;68.10;;;;;;5016490;28;20547;-74
2022/03/29 10:35:58;;;;;;;19.55;12.70;;;17.90;67.10;;;;;;5016474;28;20455;-74
2022/03/29 10:38:44;;;;;;;21.15;11.73;;;17.90;67.00;;;;;;5015126;28;20080;-76
2022/03/29 10:41:30;;;;;;;23.05;12.38;;;17.90;66.80;;;;;;5016421;28;20446;-74
2022/03/29 10:44:08;;;;;;;25.17;11.93;;;18.00;67.80;;;;;;5016503;28;20105;-74
2022/03/29 10:46:38;;;;;;;27.00;12.40;;;17.80;68.10;;;;;;5016701;28;20025;-74
2022/03/29 10:49:24;;;;;;;26.48;12.10;;;18.10;66.10;;;;;;5016516;28;20065;-74
2022/03/29 10:51:57;;;;;;;18.13;12.05;;;18.00;67.70;;;;;;5016196;28;20030;-74
2022/03/29 10:54:33;;;;;;;20.33;11.77;;;18.10;67.70;;;;;;5016452;28;20026;-74
2022/03/29 10:57:00;;;;;;;19.35;11.55;;;18.20;66.10;;;;;;5016227;28;20033;-75
2022/03/29 10:59:27;;;;;;;23.45;12.02;;;18.10;68.40;;;;;;5014900;28;20070;-75
2022/03/29 11:02:09;;;;;;;19.02;11.75;;;18.10;67.20;;;;;;5016497;28;20026;-75
2022/03/29 11:04:35;;;;;;;24.83;12.55;;;18.20;66.80;;;;;;5011579;28;20046;-75
2022/03/29 11:07:07;;;;;;;26.52;11.60;;;18.10;68.00;;;;;;4996713;28;20034;-75
2022/03/29 11:09:34;;;;;;;22.83;11.93;;;18.20;67.20;;;;;;5011336;28;20074;-75
2022/03/29 11:12:00;;;;;;;20.67;12.30;;;18.20;66.90;;;;;;4996407;28;20030;-75
2022/03/29 11:14:36;;;;;;;21.73;12.00;;;18.10;66.50;;;;;;4996545;28;20481;-75
2022/03/29 11:17:04;;;;;;;24.75;12.00;;;18.00;65.50;;;;;;5011239;28;20184;-75
2022/03/29 11:19:46;;;;;;;24.02;11.07;;;18.00;65.60;;;;;;4996310;28;20030;-75
2022/03/29 11:22:25;;;;;;;19.38;11.55;;;18.00;66.60;;;;;;4996395;28;20045;-75
2022/03/29 11:24:53;;;;;;;21.00;12.43;;;18.30;66.30;;;;;;4996140;28;20023;-75
2022/03/29 11:27:23;;;;;;;18.55;11.93;;;18.20;66.20;;;;;;4996148;28;20361;-75
2022/03/29 11:29:49;;;;;;;21.48;11.50;;;18.20;66.10;;;;;;5011416;28;20379;-74
2022/03/29 11:32:17;;;;;;;18.17;11.23;;;18.30;64.60;;;;;;4996078;28;20054;-74
2022/03/29 11:34:44;;;;;;;18.92;11.98;;;18.20;66.30;;;;;;4995282;28;20026;-75
2022/03/29 11:37:25;;;;;;;22.17;11.07;;;18.20;66.80;;;;;;4995935;28;20387;-74
2022/03/29 11:39:50;;;;;;;20.08;10.85;;;18.40;66.50;;;;;;4995957;28;20023;-75
2022/03/29 11:42:16;;;;;;;21.98;11.27;;;18.40;66.70;;;;;;4995768;28;20038;-75
2022/03/29 11:44:47;;;;;;;20.92;10.82;;;18.40;64.40;;;;;;4995129;28;20050;-74
2022/03/29 11:47:12;;;;;;;16.55;9.90;;;18.50;63.40;;;;;;4995777;28;20030;-74
2022/03/29 11:49:41;;;;;;;21.20;10.23;;;18.60;62.80;;;;;;4994461;28;20506;-74
2022/03/29 11:52:13;;;;;;;20.58;10.55;;;18.70;61.80;;;;;;5010670;28;20125;-74
2022/03/29 11:54:45;;;;;;;17.55;10.82;;;18.90;60.80;;;;;;4995512;28;20026;-74
2022/03/29 11:57:20;;;;;;;21.55;10.68;;;19.00;60.50;;;;;;5010505;28;20392;-74
2022/03/29 11:59:47;;;;;;;21.67;10.75;;;18.90;59.90;;;;;;5010361;28;20444;-74
2022/03/29 12:02:13;;;;;;;21.13;10.82;;;18.80;60.50;;;;;;4995418;28;20046;-74
2022/03/29 12:04:39;;;;;;;19.13;11.30;;;18.70;62.30;;;;;;5009126;28;20465;-73
2022/03/29 12:07:05;;;;;;;19.88;10.45;;;18.60;60.70;;;;;;5014767;28;20030;-72
2022/03/29 12:09:31;;;;;;;24.13;10.43;;;18.60;60.90;;;;;;5014695;28;20021;-74
2022/03/29 12:12:03;;;;;;;19.23;10.50;;;18.60;62.40;;;;;;5014935;28;20041;-74
2022/03/29 12:14:29;;;;;;;15.20;10.18;;;18.70;63.30;;;;;;5013665;28;20097;-74
2022/03/29 12:17:08;;;;;;;15.35;11.10;;;18.60;61.00;;;;;;5013367;28;20034;-74
2022/03/29 12:19:36;;;;;;;20.65;10.70;;;18.60;59.70;;;;;;5014708;28;20057;-75
2022/03/29 12:25:24;;;;;;;19.65;11.18;;;18.60;61.30;;;;;;5014655;28;20103;-75
2022/03/29 12:27:50;;;;;;;19.98;11.25;;;18.70;61.20;;;;;;5013225;28;20073;-75
2022/03/29 12:30:15;;;;;;;19.48;11.30;;;18.80;59.70;;;;;;5014263;28;20598;-75
2022/03/29 12:32:45;;;;;;;17.42;10.48;;;18.80;59.80;;;;;;5014342;28;20061;-75
2022/03/29 12:35:15;;;;;;;19.23;10.80;;;18.80;60.50;;;;;;4996424;28;20113;-75
2022/03/29 12:37:47;;;;;;;18.20;10.73;;;18.70;61.40;;;;;;5012663;28;20430;-75
2022/03/29 12:40:14;;;;;;;16.33;10.23;;;18.70;62.80;;;;;;5013157;28;20113;-75
2022/03/29 12:42:40;;;;;;;17.33;9.57;;;18.90;63.60;;;;;;4996771;28;20451;-75
2022/03/29 12:45:08;;;;;;;18.05;9.27;;;19.00;59.80;;;;;;5013527;28;20057;-74
2022/03/29 12:47:33;;;;;;;17.00;8.70;;;19.00;58.90;;;;;;5013833;28;20026;-75
2022/03/29 12:50:04;;;;;;;13.77;8.75;;;18.90;59.10;;;;;;4996323;28;20022;-74